Virtual Washington ARTCC


KBWI 222054Z 29016G23KT 10SM BKN250 08/M05 A2997 RMK AO2 PK WND 30026/2041 SLP148 T00781050 55000
KDCA 222052Z 33014G22KT 10SM BKN250 08/M07 A3000 RMK AO2 SLP160 T00831067 55002
KIAD 222052Z 31019G24KT 10SM BKN085 BKN200 07/M07 A3000 RMK AO2 SLP162 T00671067 55006
KORF 222051Z 32011G16KT 270V350 10SM CLR 11/M04 A2997 RMK AO2 SLP149 T01061044 55005
KRDU 222051Z 34009G17KT 10SM FEW130 BKN160 BKN250 11/M07 A3005 RMK AO2 SLP177 T01061072 56011


ZDC Activity

No controllers online.


The information contained on all pages of this website is to be used for flight simulation purposes only on the VATSIM network. It is not intended nor should it be used for real world navigation.This site is not affiliated with the FAA, the actual Washington Center or any governing aviation body. All content contained herein is approved only for use on the VATSIM network. ©2016 Virtual Washington ARTCC -- Source Code © 2016-2017 W. Guisbond and R. Rump.